sensor_id;sensor_type;location;lat;lon;timestamp;pressure;altitude;pressure_sealevel;temperature;humidity
7441;BME280;29616;51.950;8.572;2023-04-05T00:02:13;100889.69;;;0.59;100.00
7441;BME280;29616;51.950;8.572;2023-04-05T00:04:45;100896.34;;;0.51;100.00
7441;BME280;29616;51.950;8.572;2023-04-05T00:07:21;100894.50;;;0.53;100.00
7441;BME280;29616;51.950;8.572;2023-04-05T00:09:50;100901.91;;;0.48;100.00
7441;BME280;29616;51.950;8.572;2023-04-05T00:12:18;100893.72;;;0.31;100.00
7441;BME280;29616;51.950;8.572;2023-04-05T00:14:46;100879.47;;;0.29;100.00
7441;BME280;29616;51.950;8.572;2023-04-05T00:17:16;100896.53;;;0.28;100.00
7441;BME280;29616;51.950;8.572;2023-04-05T00:19:45;100885.50;;;0.34;100.00
7441;BME280;29616;51.950;8.572;2023-04-05T00:22:21;100895.75;;;0.26;100.00
7441;BME280;29616;51.950;8.572;2023-04-05T00:24:52;100875.72;;;0.13;100.00
7441;BME280;29616;51.950;8.572;2023-04-05T00:27:21;100878.53;;;0.10;100.00
7441;BME280;29616;51.950;8.572;2023-04-05T00:29:50;100878.16;;;-0.02;100.00
7441;BME280;29616;51.950;8.572;2023-04-05T00:32:21;100887.97;;;-0.01;100.00
7441;BME280;29616;51.950;8.572;2023-04-05T00:34:49;100888.28;;;0.12;100.00
7441;BME280;29616;51.950;8.572;2023-04-05T00:37:17;100882.78;;;0.15;100.00
7441;BME280;29616;51.950;8.572;2023-04-05T00:39:47;100882.56;;;0.20;100.00
7441;BME280;29616;51.950;8.572;2023-04-05T00:42:17;100884.44;;;0.18;100.00
7441;BME280;29616;51.950;8.572;2023-04-05T00:44:47;100884.50;;;0.16;100.00
7441;BME280;29616;51.950;8.572;2023-04-05T00:47:17;100869.13;;;0.20;100.00
7441;BME280;29616;51.950;8.572;2023-04-05T00:49:46;100863.38;;;0.27;100.00
7441;BME280;29616;51.950;8.572;2023-04-05T00:52:14;100872.34;;;0.28;100.00
7441;BME280;29616;51.950;8.572;2023-04-05T00:54:43;100873.97;;;0.32;100.00
7441;BME280;29616;51.950;8.572;2023-04-05T00:57:14;100868.72;;;0.29;100.00
7441;BME280;29616;51.950;8.572;2023-04-05T00:59:44;100862.25;;;0.33;100.00
7441;BME280;29616;51.950;8.572;2023-04-05T01:02:14;100873.78;;;0.35;100.00
7441;BME280;29616;51.950;8.572;2023-04-05T01:04:47;100858.75;;;0.31;100.00
7441;BME280;29616;51.950;8.572;2023-04-05T01:07:24;100864.28;;;0.28;100.00
7441;BME280;29616;51.950;8.572;2023-04-05T01:09:58;100865.78;;;0.15;100.00
7441;BME280;29616;51.950;8.572;2023-04-05T01:12:31;100858.94;;;0.08;100.00
7441;BME280;29616;51.950;8.572;2023-04-05T01:15:03;100853.56;;;0.08;100.00
7441;BME280;29616;51.950;8.572;2023-04-05T01:17:32;100860.88;;;0.04;100.00
7441;BME280;29616;51.950;8.572;2023-04-05T01:20:07;100841.25;;;-0.18;100.00
7441;BME280;29616;51.950;8.572;2023-04-05T01:22:58;100857.72;;;-0.26;100.00
7441;BME280;29616;51.950;8.572;2023-04-05T01:25:56;100855.78;;;-0.22;100.00
7441;BME280;29616;51.950;8.572;2023-04-05T01:28:48;100856.44;;;-0.17;100.00
7441;BME280;29616;51.950;8.572;2023-04-05T01:31:25;100852.63;;;-0.12;100.00
7441;BME280;29616;51.950;8.572;2023-04-05T01:33:59;100853.44;;;-0.30;100.00
7441;BME280;29616;51.950;8.572;2023-04-05T01:36:32;100853.69;;;-0.16;100.00
7441;BME280;29616;51.950;8.572;2023-04-05T01:39:04;100850.41;;;-0.22;100.00
7441;BME280;29616;51.950;8.572;2023-04-05T01:41:37;100851.28;;;-0.22;100.00
7441;BME280;29616;51.950;8.572;2023-04-05T01:44:06;100828.03;;;-0.23;100.00
7441;BME280;29616;51.950;8.572;2023-04-05T01:46:36;100843.78;;;-0.14;100.00
7441;BME280;29616;51.950;8.572;2023-04-05T01:49:06;100847.72;;;-0.22;100.00
7441;BME280;29616;51.950;8.572;2023-04-05T01:51:36;100840.06;;;-0.31;100.00
7441;BME280;29616;51.950;8.572;2023-04-05T01:54:07;100837.56;;;-0.36;100.00
7441;BME280;29616;51.950;8.572;2023-04-05T01:56:37;100832.59;;;-0.45;100.00
7441;BME280;29616;51.950;8.572;2023-04-05T01:59:05;100829.19;;;-0.48;100.00
7441;BME280;29616;51.950;8.572;2023-04-05T02:01:34;100835.22;;;-0.43;100.00
7441;BME280;29616;51.950;8.572;2023-04-05T02:04:05;100833.81;;;-0.32;100.00
7441;BME280;29616;51.950;8.572;2023-04-05T02:06:37;100825.50;;;-0.46;100.00
7441;BME280;29616;51.950;8.572;2023-04-05T02:09:08;100814.75;;;-0.46;100.00
7441;BME280;29616;51.950;8.572;2023-04-05T02:11:38;100822.59;;;-0.41;100.00
7441;BME280;29616;51.950;8.572;2023-04-05T02:14:06;100797.22;;;-0.54;100.00
7441;BME280;29616;51.950;8.572;2023-04-05T02:16:36;100812.03;;;-0.66;100.00
7441;BME280;29616;51.950;8.572;2023-04-05T02:19:05;100811.78;;;-0.60;100.00
7441;BME280;29616;51.950;8.572;2023-04-05T02:21:36;100807.06;;;-0.55;100.00
7441;BME280;29616;51.950;8.572;2023-04-05T02:24:06;100796.59;;;-0.61;100.00
7441;BME280;29616;51.950;8.572;2023-04-05T02:26:34;100816.56;;;-0.67;100.00
7441;BME280;29616;51.950;8.572;2023-04-05T02:29:03;100816.00;;;-0.75;100.00
7441;BME280;29616;51.950;8.572;2023-04-05T02:31:31;100803.84;;;-0.83;100.00
7441;BME280;29616;51.950;8.572;2023-04-05T02:33:59;100810.69;;;-0.76;100.00
7441;BME280;29616;51.950;8.572;2023-04-05T02:36:34;100815.13;;;-0.75;100.00
7441;BME280;29616;51.950;8.572;2023-04-05T02:39:03;100816.06;;;-0.76;100.00
7441;BME280;29616;51.950;8.572;2023-04-05T02:41:31;100819.66;;;-0.77;100.00
7441;BME280;29616;51.950;8.572;2023-04-05T02:44:01;100810.44;;;-0.70;100.00
7441;BME280;29616;51.950;8.572;2023-04-05T02:46:31;100807.53;;;-0.66;100.00
7441;BME280;29616;51.950;8.572;2023-04-05T02:49:00;100803.00;;;-0.43;100.00
7441;BME280;29616;51.950;8.572;2023-04-05T02:51:34;100821.84;;;-0.45;100.00
7441;BME280;29616;51.950;8.572;2023-04-05T02:54:07;100804.28;;;-0.52;100.00
7441;BME280;29616;51.950;8.572;2023-04-05T02:56:36;100811.66;;;-0.57;100.00
7441;BME280;29616;51.950;8.572;2023-04-05T02:59:10;100803.97;;;-0.66;100.00
7441;BME280;29616;51.950;8.572;2023-04-05T03:01:43;100816.34;;;-0.62;100.00
7441;BME280;29616;51.950;8.572;2023-04-05T03:04:20;100796.47;;;-0.58;100.00
7441;BME280;29616;51.950;8.572;2023-04-05T03:06:51;100814.75;;;-0.46;100.00
7441;BME280;29616;51.950;8.572;2023-04-05T03:09:23;100807.94;;;-0.34;100.00
7441;BME280;29616;51.950;8.572;2023-04-05T03:11:56;100810.72;;;-0.36;100.00
7441;BME280;29616;51.950;8.572;2023-04-05T03:14:26;100796.63;;;-0.41;100.00
7441;BME280;29616;51.950;8.572;2023-04-05T03:16:55;100794.72;;;-0.39;100.00
7441;BME280;29616;51.950;8.572;2023-04-05T03:19:32;100800.78;;;-0.54;100.00
7441;BME280;29616;51.950;8.572;2023-04-05T03:22:13;100795.59;;;-0.58;100.00
7441;BME280;29616;51.950;8.572;2023-04-05T03:24:43;100787.19;;;-0.71;100.00
7441;BME280;29616;51.950;8.572;2023-04-05T03:27:14;100792.53;;;-0.70;100.00
7441;BME280;29616;51.950;8.572;2023-04-05T03:29:57;100798.00;;;-0.73;100.00
7441;BME280;29616;51.950;8.572;2023-04-05T03:32:31;100800.56;;;-0.70;100.00
7441;BME280;29616;51.950;8.572;2023-04-05T03:35:09;100794.44;;;-0.73;100.00
7441;BME280;29616;51.950;8.572;2023-04-05T03:37:45;100790.28;;;-0.80;100.00
7441;BME280;29616;51.950;8.572;2023-04-05T03:40:15;100786.97;;;-0.87;100.00
7441;BME280;29616;51.950;8.572;2023-04-05T03:42:43;100783.38;;;-0.86;100.00
7441;BME280;29616;51.950;8.572;2023-04-05T03:45:12;100794.44;;;-0.73;100.00
7441;BME280;29616;51.950;8.572;2023-04-05T03:47:46;100780.41;;;-0.80;100.00
7441;BME280;29616;51.950;8.572;2023-04-05T03:50:16;100788.06;;;-0.91;100.00
7441;BME280;29616;51.950;8.572;2023-04-05T03:52:46;100783.19;;;-1.03;100.00
7441;BME280;29616;51.950;8.572;2023-04-05T03:55:16;100781.72;;;-1.10;100.00
7441;BME280;29616;51.950;8.572;2023-04-05T03:57:46;100746.41;;;-1.21;100.00
7441;BME280;29616;51.950;8.572;2023-04-05T04:00:28;100783.00;;;-0.98;100.00
7441;BME280;29616;51.950;8.572;2023-04-05T04:03:12;100780.38;;;-1.00;100.00
7441;BME280;29616;51.950;8.572;2023-04-05T04:05:44;100778.50;;;-0.98;100.00
7441;BME280;29616;51.950;8.572;2023-04-05T04:08:15;100776.69;;;-0.97;100.00
7441;BME280;29616;51.950;8.572;2023-04-05T04:10:43;100781.50;;;-1.05;100.00
7441;BME280;29616;51.950;8.572;2023-04-05T04:13:20;100774.78;;;-1.15;100.00
7441;BME280;29616;51.950;8.572;2023-04-05T04:16:05;100781.28;;;-1.21;100.00
7441;BME280;29616;51.950;8.572;2023-04-05T04:18:45;100776.78;;;-1.20;100.00
7441;BME280;29616;51.950;8.572;2023-04-05T04:21:31;100780.03;;;-1.34;100.00
7441;BME280;29616;51.950;8.572;2023-04-05T04:24:24;100780.22;;;-1.39;100.00
7441;BME280;29616;51.950;8.572;2023-04-05T04:27:12;100786.16;;;-1.31;100.00
7441;BME280;29616;51.950;8.572;2023-04-05T04:29:57;100778.50;;;-1.19;100.00
7441;BME280;29616;51.950;8.572;2023-04-05T04:32:44;100772.09;;;-1.15;100.00
7441;BME280;29616;51.950;8.572;2023-04-05T04:35:39;100782.16;;;-1.20;100.00
7441;BME280;29616;51.950;8.572;2023-04-05T04:38:27;100773.03;;;-1.16;100.00
7441;BME280;29616;51.950;8.572;2023-04-05T04:41:16;100775.13;;;-1.03;100.00
7441;BME280;29616;51.950;8.572;2023-04-05T04:44:07;100772.41;;;-1.01;100.00
7441;BME280;29616;51.950;8.572;2023-04-05T04:47:08;100780.97;;;-1.13;100.00
7441;BME280;29616;51.950;8.572;2023-04-05T04:50:00;100779.91;;;-1.09;100.00
7441;BME280;29616;51.950;8.572;2023-04-05T04:52:30;100779.16;;;-1.13;100.00
7441;BME280;29616;51.950;8.572;2023-04-05T04:55:01;100771.03;;;-1.11;100.00
7441;BME280;29616;51.950;8.572;2023-04-05T04:57:32;100774.38;;;-1.06;100.00
7441;BME280;29616;51.950;8.572;2023-04-05T05:00:00;100773.22;;;-0.99;100.00
7441;BME280;29616;51.950;8.572;2023-04-05T05:02:36;100779.25;;;-0.94;100.00
7441;BME280;29616;51.950;8.572;2023-04-05T05:05:06;100765.50;;;-0.87;100.00
7441;BME280;29616;51.950;8.572;2023-04-05T05:07:35;100779.91;;;-0.68;100.00
7441;BME280;29616;51.950;8.572;2023-04-05T05:10:04;100777.34;;;-0.71;100.00
7441;BME280;29616;51.950;8.572;2023-04-05T05:12:35;100780.09;;;-0.72;100.00
7441;BME280;29616;51.950;8.572;2023-04-05T05:15:05;100775.75;;;-0.75;100.00
7441;BME280;29616;51.950;8.572;2023-04-05T05:17:33;100783.47;;;-0.67;100.00
7441;BME280;29616;51.950;8.572;2023-04-05T05:20:05;100773.44;;;-0.64;100.00
7441;BME280;29616;51.950;8.572;2023-04-05T05:22:42;100779.16;;;-0.51;100.00
7441;BME280;29616;51.950;8.572;2023-04-05T05:25:13;100777.34;;;-0.30;100.00
7441;BME280;29616;51.950;8.572;2023-04-05T05:27:46;100787.53;;;-0.18;100.00
7441;BME280;29616;51.950;8.572;2023-04-05T05:30:16;100779.13;;;-0.11;100.00
7441;BME280;29616;51.950;8.572;2023-04-05T05:32:47;100778.66;;;0.00;100.00
7441;BME280;29616;51.950;8.572;2023-04-05T05:35:17;100782.19;;;0.00;100.00
7441;BME280;29616;51.950;8.572;2023-04-05T05:37:49;100777.34;;;0.09;100.00
7441;BME280;29616;51.950;8.572;2023-04-05T05:40:19;100782.81;;;0.26;100.00
7441;BME280;29616;51.950;8.572;2023-04-05T05:42:49;100779.91;;;0.49;100.00
7441;BME280;29616;51.950;8.572;2023-04-05T05:45:19;100772.97;;;0.62;100.00
7441;BME280;29616;51.950;8.572;2023-04-05T05:47:49;100779.72;;;0.89;100.00
7441;BME280;29616;51.950;8.572;2023-04-05T05:50:20;100776.03;;;1.09;100.00
7441;BME280;29616;51.950;8.572;2023-04-05T05:52:51;100777.69;;;1.29;100.00
7441;BME280;29616;51.950;8.572;2023-04-05T05:55:20;100777.06;;;1.58;100.00
7441;BME280;29616;51.950;8.572;2023-04-05T05:57:50;100772.03;;;1.84;100.00
7441;BME280;29616;51.950;8.572;2023-04-05T06:00:20;100764.47;;;2.08;100.00
7441;BME280;29616;51.950;8.572;2023-04-05T06:02:50;100770.59;;;2.43;100.00
7441;BME280;29616;51.950;8.572;2023-04-05T06:05:22;100769.78;;;2.74;100.00
7441;BME280;29616;51.950;8.572;2023-04-05T06:07:50;100772.44;;;3.05;100.00
7441;BME280;29616;51.950;8.572;2023-04-05T06:10:19;100767.88;;;3.21;100.00
7441;BME280;29616;51.950;8.572;2023-04-05T06:12:50;100776.75;;;3.53;100.00
7441;BME280;29616;51.950;8.572;2023-04-05T06:15:19;100763.81;;;3.88;100.00
7441;BME280;29616;51.950;8.572;2023-04-05T06:17:49;100765.56;;;4.31;100.00
7441;BME280;29616;51.950;8.572;2023-04-05T06:20:18;100763.97;;;4.69;100.00
7441;BME280;29616;51.950;8.572;2023-04-05T06:22:49;100758.72;;;5.07;100.00
7441;BME280;29616;51.950;8.572;2023-04-05T06:25:17;100761.31;;;5.35;100.00
7441;BME280;29616;51.950;8.572;2023-04-05T06:27:47;100752.56;;;5.57;100.00
7441;BME280;29616;51.950;8.572;2023-04-05T06:30:15;100758.41;;;6.03;100.00
7441;BME280;29616;51.950;8.572;2023-04-05T06:32:46;100764.47;;;6.44;100.00
7441;BME280;29616;51.950;8.572;2023-04-05T06:35:21;100755.06;;;6.73;100.00
7441;BME280;29616;51.950;8.572;2023-04-05T06:37:52;100755.72;;;7.01;100.00
7441;BME280;29616;51.950;8.572;2023-04-05T06:40:21;100752.91;;;7.26;100.00
7441;BME280;29616;51.950;8.572;2023-04-05T06:42:50;100756.22;;;7.53;100.00
7441;BME280;29616;51.950;8.572;2023-04-05T06:45:25;100754.53;;;8.09;100.00
7441;BME280;29616;51.950;8.572;2023-04-05T06:47:56;100753.88;;;8.40;100.00
7441;BME280;29616;51.950;8.572;2023-04-05T06:50:24;100756.22;;;8.67;100.00
7441;BME280;29616;51.950;8.572;2023-04-05T06:52:54;100763.75;;;8.75;100.00
7441;BME280;29616;51.950;8.572;2023-04-05T06:55:23;100757.28;;;8.76;100.00
7441;BME280;29616;51.950;8.572;2023-04-05T06:57:54;100767.94;;;8.90;94.10
7441;BME280;29616;51.950;8.572;2023-04-05T07:00:22;100752.88;;;9.29;93.02
7441;BME280;29616;51.950;8.572;2023-04-05T07:02:52;100748.00;;;9.64;87.04
7441;BME280;29616;51.950;8.572;2023-04-05T07:05:23;100746.94;;;9.97;82.80
7441;BME280;29616;51.950;8.572;2023-04-05T07:07:55;100744.00;;;10.09;74.67
7441;BME280;29616;51.950;8.572;2023-04-05T07:10:24;100739.00;;;10.65;74.70
7441;BME280;29616;51.950;8.572;2023-04-05T07:12:52;100740.63;;;10.77;70.51
7441;BME280;29616;51.950;8.572;2023-04-05T07:15:22;100741.09;;;10.92;67.14
7441;BME280;29616;51.950;8.572;2023-04-05T07:17:53;100735.63;;;10.92;65.77
7441;BME280;29616;51.950;8.572;2023-04-05T07:20:23;100737.44;;;11.22;64.73
7441;BME280;29616;51.950;8.572;2023-04-05T07:22:55;100737.31;;;11.33;62.71
7441;BME280;29616;51.950;8.572;2023-04-05T07:25:25;100724.75;;;11.21;60.12
7441;BME280;29616;51.950;8.572;2023-04-05T07:27:53;100719.44;;;11.48;60.48
7441;BME280;29616;51.950;8.572;2023-04-05T07:30:23;100723.19;;;11.37;58.18
7441;BME280;29616;51.950;8.572;2023-04-05T07:32:53;100722.44;;;11.16;56.89
7441;BME280;29616;51.950;8.572;2023-04-05T07:35:23;100718.63;;;11.76;57.80
7441;BME280;29616;51.950;8.572;2023-04-05T07:37:52;100722.63;;;11.72;56.71
7441;BME280;29616;51.950;8.572;2023-04-05T07:40:23;100717.56;;;11.96;55.15
7441;BME280;29616;51.950;8.572;2023-04-05T07:42:52;100732.41;;;11.84;55.45
7441;BME280;29616;51.950;8.572;2023-04-05T07:45:22;100725.63;;;11.98;54.17
7441;BME280;29616;51.950;8.572;2023-04-05T07:47:50;100720.50;;;12.32;54.83
7441;BME280;29616;51.950;8.572;2023-04-05T07:50:18;100731.56;;;13.13;53.75
7441;BME280;29616;51.950;8.572;2023-04-05T07:52:48;100727.31;;;13.19;55.11
7441;BME280;29616;51.950;8.572;2023-04-05T07:55:16;100721.91;;;13.00;52.86
7441;BME280;29616;51.950;8.572;2023-04-05T07:57:48;100738.13;;;13.20;50.98
7441;BME280;29616;51.950;8.572;2023-04-05T08:00:16;100729.91;;;12.93;49.41
7441;BME280;29616;51.950;8.572;2023-04-05T08:02:46;100724.44;;;13.91;49.64
7441;BME280;29616;51.950;8.572;2023-04-05T08:05:15;100729.47;;;13.25;48.30
7441;BME280;29616;51.950;8.572;2023-04-05T08:07:46;100724.97;;;12.97;48.44
7441;BME280;29616;51.950;8.572;2023-04-05T08:10:15;100733.22;;;13.42;50.90
7441;BME280;29616;51.950;8.572;2023-04-05T08:12:45;100726.88;;;13.41;48.91
7441;BME280;29616;51.950;8.572;2023-04-05T08:15:17;100720.19;;;13.79;49.03
7441;BME280;29616;51.950;8.572;2023-04-05T08:17:47;100726.19;;;14.00;48.02
7441;BME280;29616;51.950;8.572;2023-04-05T08:20:17;100726.13;;;14.10;48.47
7441;BME280;29616;51.950;8.572;2023-04-05T08:22:47;100729.59;;;13.76;47.40
7441;BME280;29616;51.950;8.572;2023-04-05T08:25:15;100725.28;;;13.91;49.38
7441;BME280;29616;51.950;8.572;2023-04-05T08:27:45;100721.63;;;14.09;45.56
7441;BME280;29616;51.950;8.572;2023-04-05T08:30:14;100716.06;;;14.78;47.08
7441;BME280;29616;51.950;8.572;2023-04-05T08:32:48;100721.88;;;15.66;44.15
7441;BME280;29616;51.950;8.572;2023-04-05T08:35:18;100723.31;;;14.79;43.71
7441;BME280;29616;51.950;8.572;2023-04-05T08:37:50;100711.81;;;14.49;44.77
7441;BME280;29616;51.950;8.572;2023-04-05T08:40:19;100718.50;;;14.81;44.84
7441;BME280;29616;51.950;8.572;2023-04-05T08:42:51;100718.63;;;15.13;43.61
7441;BME280;29616;51.950;8.572;2023-04-05T08:45:22;100726.44;;;14.92;44.32
7441;BME280;29616;51.950;8.572;2023-04-05T08:47:55;100711.84;;;14.57;43.39
7441;BME280;29616;51.950;8.572;2023-04-05T08:50:24;100724.63;;;13.97;44.23
7441;BME280;29616;51.950;8.572;2023-04-05T08:52:56;100727.25;;;14.25;45.38
7441;BME280;29616;51.950;8.572;2023-04-05T08:55:25;100721.13;;;14.31;44.24
7441;BME280;29616;51.950;8.572;2023-04-05T08:57:54;100727.31;;;14.58;45.98
7441;BME280;29616;51.950;8.572;2023-04-05T09:00:25;100730.97;;;15.09;44.32
7441;BME280;29616;51.950;8.572;2023-04-05T09:02:57;100723.34;;;17.13;42.33
7441;BME280;29616;51.950;8.572;2023-04-05T09:05:29;100717.69;;;17.37;42.97
7441;BME280;29616;51.950;8.572;2023-04-05T09:07:59;100710.66;;;15.84;41.84
7441;BME280;29616;51.950;8.572;2023-04-05T09:10:29;100720.03;;;15.33;42.91
7441;BME280;29616;51.950;8.572;2023-04-05T09:12:59;100726.00;;;16.03;43.02
7441;BME280;29616;51.950;8.572;2023-04-05T09:15:31;100723.75;;;16.93;41.25
7441;BME280;29616;51.950;8.572;2023-04-05T09:18:04;100719.47;;;16.04;40.80
7441;BME280;29616;51.950;8.572;2023-04-05T09:20:45;100724.06;;;16.35;41.93
7441;BME280;29616;51.950;8.572;2023-04-05T09:23:14;100711.50;;;16.25;40.98
7441;BME280;29616;51.950;8.572;2023-04-05T09:25:42;100714.13;;;15.78;41.53
7441;BME280;29616;51.950;8.572;2023-04-05T09:28:14;100713.94;;;15.88;42.29
7441;BME280;29616;51.950;8.572;2023-04-05T09:30:45;100706.44;;;17.38;41.19
7441;BME280;29616;51.950;8.572;2023-04-05T09:33:18;100706.28;;;19.04;38.04
7441;BME280;29616;51.950;8.572;2023-04-05T09:35:49;100707.88;;;16.95;39.51
7441;BME280;29616;51.950;8.572;2023-04-05T09:38:19;100704.19;;;17.65;41.04
7441;BME280;29616;51.950;8.572;2023-04-05T09:41:09;100700.44;;;16.41;40.23
7441;BME280;29616;51.950;8.572;2023-04-05T09:43:40;100703.75;;;14.05;40.92
7441;BME280;29616;51.950;8.572;2023-04-05T09:48:56;100714.78;;;12.15;44.00
7441;BME280;29616;51.950;8.572;2023-04-05T09:51:30;100702.75;;;11.89;44.14
7441;BME280;29616;51.950;8.572;2023-04-05T09:54:02;100691.00;;;13.78;43.26
7441;BME280;29616;51.950;8.572;2023-04-05T09:56:33;100699.91;;;14.83;42.88
7441;BME280;29616;51.950;8.572;2023-04-05T09:59:05;100703.09;;;15.04;43.05
7441;BME280;29616;51.950;8.572;2023-04-05T10:01:35;100698.31;;;14.72;42.20
7441;BME280;29616;51.950;8.572;2023-04-05T10:04:07;100697.56;;;14.54;41.71
7441;BME280;29616;51.950;8.572;2023-04-05T10:06:37;100695.59;;;14.80;42.36
7441;BME280;29616;51.950;8.572;2023-04-05T10:09:09;100693.84;;;15.21;42.37
7441;BME280;29616;51.950;8.572;2023-04-05T10:11:39;100682.69;;;14.73;42.49
7441;BME280;29616;51.950;8.572;2023-04-05T10:14:10;100683.28;;;14.58;40.80
7441;BME280;29616;51.950;8.572;2023-04-05T10:16:47;100686.28;;;14.14;40.56
7441;BME280;29616;51.950;8.572;2023-04-05T10:19:26;100678.84;;;14.06;41.89
7441;BME280;29616;51.950;8.572;2023-04-05T10:21:56;100679.25;;;14.71;41.14
7441;BME280;29616;51.950;8.572;2023-04-05T10:24:33;100682.81;;;15.05;40.89
7441;BME280;29616;51.950;8.572;2023-04-05T10:27:04;100667.00;;;16.44;41.50
7441;BME280;29616;51.950;8.572;2023-04-05T10:29:39;100671.81;;;16.34;38.94
7441;BME280;29616;51.950;8.572;2023-04-05T10:32:15;100671.75;;;15.79;39.45
7441;BME280;29616;51.950;8.572;2023-04-05T10:34:53;100671.31;;;15.26;39.17
7441;BME280;29616;51.950;8.572;2023-04-05T10:37:29;100674.22;;;14.58;39.50
7441;BME280;29616;51.950;8.572;2023-04-05T10:40:06;100660.03;;;15.61;40.66
7441;BME280;29616;51.950;8.572;2023-04-05T10:42:39;100668.81;;;15.89;40.04
7441;BME280;29616;51.950;8.572;2023-04-05T10:45:11;100661.00;;;16.24;39.65
7441;BME280;29616;51.950;8.572;2023-04-05T10:47:43;100654.84;;;15.98;38.93
7441;BME280;29616;51.950;8.572;2023-04-05T10:50:19;100666.41;;;15.86;39.93
7441;BME280;29616;51.950;8.572;2023-04-05T10:52:49;100658.84;;;16.59;39.73
7441;BME280;29616;51.950;8.572;2023-04-05T10:55:20;100655.06;;;15.72;39.53
7441;BME280;29616;51.950;8.572;2023-04-05T10:57:49;100656.75;;;15.57;40.55
7441;BME280;29616;51.950;8.572;2023-04-05T11:00:20;100655.25;;;14.97;40.69
7441;BME280;29616;51.950;8.572;2023-04-05T11:02:52;100661.94;;;14.44;41.35
7441;BME280;29616;51.950;8.572;2023-04-05T11:05:31;100648.69;;;15.64;41.66
7441;BME280;29616;51.950;8.572;2023-04-05T11:08:03;100653.31;;;15.55;41.66
7441;BME280;29616;51.950;8.572;2023-04-05T11:10:34;100653.84;;;14.43;41.77
7441;BME280;29616;51.950;8.572;2023-04-05T11:13:06;100648.78;;;15.14;41.53
7441;BME280;29616;51.950;8.572;2023-04-05T11:15:36;100647.44;;;16.07;41.98
7441;BME280;29616;51.950;8.572;2023-04-05T11:18:07;100651.09;;;16.62;41.48
7441;BME280;29616;51.950;8.572;2023-04-05T11:20:44;100651.53;;;15.14;40.57
7441;BME280;29616;51.950;8.572;2023-04-05T11:23:15;100642.19;;;14.23;41.05
7441;BME280;29616;51.950;8.572;2023-04-05T11:25:49;100639.13;;;15.18;41.69
7441;BME280;29616;51.950;8.572;2023-04-05T11:28:23;100638.44;;;15.08;41.38
7441;BME280;29616;51.950;8.572;2023-04-05T11:30:55;100631.94;;;15.98;40.98
7441;BME280;29616;51.950;8.572;2023-04-05T11:36:29;100632.19;;;16.27;39.40
7441;BME280;29616;51.950;8.572;2023-04-05T11:41:48;100618.66;;;17.71;38.70
7441;BME280;29616;51.950;8.572;2023-04-05T11:44:20;100626.75;;;17.50;40.47
7441;BME280;29616;51.950;8.572;2023-04-05T11:46:50;100624.38;;;16.93;38.39
7441;BME280;29616;51.950;8.572;2023-04-05T11:49:20;100613.06;;;16.80;38.93
7441;BME280;29616;51.950;8.572;2023-04-05T11:51:52;100606.91;;;16.70;38.64
7441;BME280;29616;51.950;8.572;2023-04-05T11:54:32;100613.34;;;17.39;38.43
7441;BME280;29616;51.950;8.572;2023-04-05T11:57:02;100593.72;;;17.34;39.89
7441;BME280;29616;51.950;8.572;2023-04-05T11:59:34;100605.88;;;16.63;39.34
7441;BME280;29616;51.950;8.572;2023-04-05T12:02:04;100601.91;;;16.96;38.68
7441;BME280;29616;51.950;8.572;2023-04-05T12:04:36;100595.47;;;16.81;40.13
7441;BME280;29616;51.950;8.572;2023-04-05T12:07:10;100592.97;;;17.17;40.68
7441;BME280;29616;51.950;8.572;2023-04-05T12:10:03;100586.28;;;15.87;39.48
7441;BME280;29616;51.950;8.572;2023-04-05T12:12:38;100592.31;;;15.18;39.04
7441;BME280;29616;51.950;8.572;2023-04-05T12:15:09;100590.56;;;16.06;42.73
7441;BME280;29616;51.950;8.572;2023-04-05T12:17:43;100575.28;;;17.49;39.89
7441;BME280;29616;51.950;8.572;2023-04-05T12:20:13;100573.72;;;18.36;38.10
7441;BME280;29616;51.950;8.572;2023-04-05T12:22:45;100570.38;;;17.59;38.78
7441;BME280;29616;51.950;8.572;2023-04-05T12:25:14;100584.91;;;16.54;39.88
7441;BME280;29616;51.950;8.572;2023-04-05T12:27:43;100586.69;;;17.01;40.34
7441;BME280;29616;51.950;8.572;2023-04-05T12:30:14;100562.53;;;17.48;38.12
7441;BME280;29616;51.950;8.572;2023-04-05T12:32:45;100568.63;;;18.10;37.53
7441;BME280;29616;51.950;8.572;2023-04-05T12:35:15;100569.22;;;18.35;38.20
7441;BME280;29616;51.950;8.572;2023-04-05T12:37:45;100571.38;;;18.83;38.10
7441;BME280;29616;51.950;8.572;2023-04-05T12:40:19;100564.75;;;18.48;39.13
7441;BME280;29616;51.950;8.572;2023-04-05T12:42:49;100565.84;;;18.83;37.36
7441;BME280;29616;51.950;8.572;2023-04-05T12:45:22;100565.19;;;18.81;35.80
7441;BME280;29616;51.950;8.572;2023-04-05T12:47:52;100560.03;;;18.78;36.84
7441;BME280;29616;51.950;8.572;2023-04-05T12:50:25;100548.56;;;18.81;37.60
7441;BME280;29616;51.950;8.572;2023-04-05T12:52:58;100542.06;;;19.10;37.32
7441;BME280;29616;51.950;8.572;2023-04-05T12:55:29;100555.94;;;18.95;37.62
7441;BME280;29616;51.950;8.572;2023-04-05T12:57:59;100547.75;;;18.37;37.40
7441;BME280;29616;51.950;8.572;2023-04-05T13:00:31;100550.38;;;18.74;37.42
7441;BME280;29616;51.950;8.572;2023-04-05T13:03:01;100537.97;;;19.48;37.42
7441;BME280;29616;51.950;8.572;2023-04-05T13:05:30;100536.00;;;19.63;36.15
7441;BME280;29616;51.950;8.572;2023-04-05T13:08:01;100536.50;;;17.94;35.47
7441;BME280;29616;51.950;8.572;2023-04-05T13:10:30;100551.31;;;18.31;35.92
7441;BME280;29616;51.950;8.572;2023-04-05T13:12:59;100535.19;;;18.20;34.78
7441;BME280;29616;51.950;8.572;2023-04-05T13:15:28;100531.53;;;18.04;35.05
7441;BME280;29616;51.950;8.572;2023-04-05T13:17:58;100535.00;;;18.06;35.37
7441;BME280;29616;51.950;8.572;2023-04-05T13:20:28;100526.19;;;17.36;38.20
7441;BME280;29616;51.950;8.572;2023-04-05T13:22:56;100522.53;;;17.21;36.94
7441;BME280;29616;51.950;8.572;2023-04-05T13:25:26;100527.44;;;18.15;35.74
7441;BME280;29616;51.950;8.572;2023-04-05T13:27:55;100518.38;;;17.40;37.08
7441;BME280;29616;51.950;8.572;2023-04-05T13:30:26;100526.34;;;16.36;37.10
7441;BME280;29616;51.950;8.572;2023-04-05T13:32:54;100522.47;;;15.51;37.70